Impacts TAF Board INFO
FOR SITUATIONAL AWARENESS. NOT TO BE USED FOR FLIGHT PLANNING PURPOSES.
IDs:

KCLT - Charlotte/Douglas In, NC, US

Issued at 0540 UTC 23 Apr 2017
Updated at 0803 UTC 23 Apr 2017
Potential Impact None Slight Moderate High
Time0752Z 23/09Z 23/10Z 23/11Z 23/12Z 23/13Z 23/14Z 23/15Z 23/16Z 23/17Z 23/18Z 23/19Z 23/20Z 23/21Z>>
Type OBS PRVL PRVL PRVL PRVL PRVL PRVL PRVL PRVL PRVL PRVL PRVL PRVL PRVL
VIS 10 >6 >6 >6 5 5 5 5 5 6 6 6 6 6
CIG 65 8 8 8 3 3 3 3 3 8 8 8 8 8
Cover OVC OVC OVC OVC OVC OVC OVC OVC OVC OVC OVC OVC OVC OVC
FltCat VFR IFR IFR IFR LIFR LIFR LIFR LIFR LIFR IFR IFR IFR IFR IFR
WX -- -SHRA -SHRA -SHRA SHRA SHRA SHRA SHRA SHRA -SHRA BR -SHRA BR -SHRA BR -SHRA BR -SHRA BR
WDir 50 60 60 60 50 50 50 50 50 50 50 50 50 50
WSpd 9 10 10 10 10 10 10 10 10 11 11 11 11 11
WGst -- -- -- -- -- -- -- -- -- 21 21 21 21 21

Raw TAF
KCLT 230540Z 2306/2406 06009KT P6SM -SHRA OVC015
  FM230900 06010KT P6SM -SHRA OVC008
  FM231200 05010KT 5SM SHRA OVC003
  FM231700 05011G21KT 6SM -SHRA BR OVC008
  FM232300 05011KT 2SM SHRA BR OVC003
  PROB30 2323/2402 3/4SM TSRA BR OVC003CB


Raw METAR
KCLT 230752Z 05009KT 10SM SCT009 BKN065 OVC110 14/11 A2992 RMK AO2 RAE0656 SLP123 P0000 T01390111
KCLT 230652Z 04009KT 10SM -RA SCT009 BKN080 OVC100 14/12 A2993 RMK AO2 SLP128 P0001 T01440122
KCLT 230552Z 03008G17KT 10SM -RA BKN010 OVC034 16/12 A2996 RMK AO2 RAB52 SLP139 P0000 60000 T01560117 10256 20156 51024

METAR Board
Radar Display
Forecast Discussion

FOR SITUATIONAL AWARENESS. NOT TO BE USED FOR FLIGHT PLANNING PURPOSES.

Page loaded:  08:03 UTC  |   01:03 AM Pacific  |   02:03 AM Mountain  |   03:03 AM Central  |   04:03 AM Eastern

 

ADVISORIES

FORECASTS

FORECASTS

OBSERVATIONS

USER TOOLS

ABOUT US